Terminal Aerodrome Forecast
Issued by NWS

Home | Current Version | Previous Version | Graphics & Text | Print | Product List | Glossary On
Versions: 1 2 3 4 5 6 7 8 9 10 11 12 13 14 15 16 17 18 19 20 21 22 23 24 25 26 27
000
FTUS43 KICT 300116 AAA
TAFCNU
TAF AMD
KCNU 300116Z 3001/3024 13005KT P6SM SCT009 OVC030
      TEMPO 3001/3003 BKN009
     FM300300 VRB03KT P6SM SCT030 OVC200
      TEMPO 3003/3006 BKN030
     FM300600 33012KT P6SM VCTS SCT030 OVC100CB
     FM300900 34015G22KT P6SM VCSH BKN025 OVC100
     FM301400 34015G22KT P6SM SCT025=

USA.gov is the U.S. government's official web portal to all federal, state and local government web resources and services.